Huvudsida
METAR-TAF:

METAR-TAF

Flygplatser :

Batajnica, Serbien

latitud: 44-56-07N, longitud: 020-15-27E, höjd: 86 m

Aktuellt väderrapport

Denna rapport gjordes för 11 minuter sedan, klockan 23:30 UTC
Vind 10 kt från ost
Temperatur 13°C
Fuktighet 77%
Tryck 1014 hPa
Sikt 10 km eller mer
Inga moln under 1 500 m eller inga cumulonimbus

METAR: LYBT 152330Z 09010KT CAVOK 13/09 Q1014 NOSIG

Tid: 00:41 (23:41 UTC)

Väderprognos

Denna rapport gjordes för 41 minuter sedan, klockan 23:00 UTC
Prognos gäller från 16 kl. 00 UTC till 16 kl. 24 UTC
Vind 12 kt från ost
Sikt 10 km eller mer
Inga moln under 1 500 m eller inga cumulonimbus
Temporärt
från 16 kl. 00 UTC till 16 kl. 24 UTC
Vind 15 kt från ost/sydost i byarna ända upp till 25 kt

TAF: LYBT 152300Z 1600/1624 09012KT CAVOK TX21/1613Z TN10/1605Z TEMPO 1600/1624 12015G25KT

Aktuella väderrapporter och prognoser från 4000 flygplatser (METAR- och TAF-rapporter).

De tillgängliga stationerna syns som gula och röda prickar på kartan.

För musen över prickarna för att se namnen på stationerna.

Klicka sedan för att få väderrapporter och prognoser.

För att ändra kartan: Klicka på de gröna knapparna med ett svart kors på för att zooma in; den gröna knappen med ett streck på för att zooma ut; eller på de gröna pilarna för angränsande kartor.


METAR-TAF: